Time;durP1;ratioP1;P1;durP2;ratioP2;P2;SDS_P1;SDS_P2;PMS_P1;PMS_P2;Temp;Humidity;BMP_temperature;BMP_pressure;BME280_temperature;BME280_humidity;BME280_pressure;Samples;Min_cycle;Max_cycle;Signal;HPM_P1;HPM_P2
2023/05/26 00:01:09;;;;;;;17.75;5.43;;;10.40;99.90;;;;;;4902611;29;20086;-79
2023/05/26 00:03:34;;;;;;;24.00;5.00;;;10.40;99.90;;;;;;4926072;29;20039;-79
2023/05/26 00:06:01;;;;;;;17.88;4.40;;;10.30;99.90;;;;;;4895692;29;20040;-79
2023/05/26 00:08:27;;;;;;;17.33;3.80;;;10.30;99.90;;;;;;4909424;29;20040;-78
2023/05/26 00:10:52;;;;;;;23.58;5.28;;;10.30;99.90;;;;;;4902938;28;20055;-77
2023/05/26 00:13:18;;;;;;;20.20;4.47;;;10.30;99.90;;;;;;4903318;29;20051;-79
2023/05/26 00:15:44;;;;;;;19.40;5.20;;;10.30;99.90;;;;;;4904407;29;20054;-78
2023/05/26 00:18:10;;;;;;;14.77;4.75;;;10.30;99.90;;;;;;4930996;29;20054;-79
2023/05/26 00:20:35;;;;;;;23.77;4.80;;;10.20;99.90;;;;;;4923378;28;20051;-79
2023/05/26 00:23:02;;;;;;;17.98;5.13;;;10.40;99.90;;;;;;4908524;28;20039;-78
2023/05/26 00:25:28;;;;;;;21.70;4.93;;;10.30;99.90;;;;;;4912238;29;20040;-78
2023/05/26 00:27:54;;;;;;;20.27;5.13;;;10.20;99.90;;;;;;4892837;28;20178;-77
2023/05/26 00:30:19;;;;;;;20.33;4.07;;;10.10;99.90;;;;;;4889569;28;20113;-78
2023/05/26 00:32:45;;;;;;;18.40;4.28;;;10.10;99.90;;;;;;4897816;28;20086;-79
2023/05/26 00:35:17;;;;;;;15.88;4.72;;;10.10;99.90;;;;;;4918252;28;20212;-80
2023/05/26 00:37:43;;;;;;;27.52;5.53;;;10.00;99.90;;;;;;4906809;28;20047;-79
2023/05/26 00:40:09;;;;;;;19.58;4.72;;;10.00;99.90;;;;;;4873375;28;20040;-79
2023/05/26 00:42:34;;;;;;;19.58;5.38;;;10.00;99.90;;;;;;4902580;29;20424;-80
2023/05/26 00:45:00;;;;;;;15.85;4.82;;;9.90;99.90;;;;;;4909159;28;20055;-80
2023/05/26 00:47:26;;;;;;;16.25;4.63;;;9.90;99.90;;;;;;4895648;29;20048;-79
2023/05/26 00:49:52;;;;;;;20.58;5.45;;;9.90;99.90;;;;;;4911671;28;20118;-79
2023/05/26 00:52:19;;;;;;;19.13;4.60;;;9.90;99.90;;;;;;4910835;29;20097;-80
2023/05/26 00:54:44;;;;;;;20.08;5.35;;;9.90;99.90;;;;;;4895862;29;20079;-79
2023/05/26 00:57:10;;;;;;;21.42;5.07;;;9.90;99.90;;;;;;4907746;28;20076;-79
2023/05/26 00:59:36;;;;;;;18.67;5.20;;;9.90;99.90;;;;;;4907580;29;20115;-80
2023/05/26 01:02:02;;;;;;;22.33;4.95;;;9.90;99.90;;;;;;4895038;28;20130;-81
2023/05/26 01:04:29;;;;;;;23.20;4.50;;;9.80;99.90;;;;;;4891169;29;20055;-78
2023/05/26 01:06:55;;;;;;;14.80;4.15;;;9.80;99.90;;;;;;4910814;29;20051;-81
2023/05/26 01:09:22;;;;;;;22.02;4.72;;;9.80;99.90;;;;;;4889951;29;20048;-79
2023/05/26 01:12:05;;;;;;;19.77;5.18;;;9.70;99.90;;;;;;4909258;29;20048;-81
2023/05/26 01:14:52;;;;;;;18.60;4.90;;;9.70;99.90;;;;;;4916038;29;20054;-81
2023/05/26 01:17:32;;;;;;;16.52;4.53;;;9.70;99.90;;;;;;4912138;29;20519;-79
2023/05/26 01:20:24;;;;;;;21.08;4.20;;;9.70;99.90;;;;;;4911235;29;20039;-80
2023/05/26 01:23:05;;;;;;;23.00;4.65;;;9.70;99.90;;;;;;4905172;29;20039;-81
2023/05/26 01:25:56;;;;;;;17.52;5.47;;;9.80;99.90;;;;;;4904316;28;20073;-80
2023/05/26 01:28:27;;;;;;;22.88;5.13;;;9.70;99.90;;;;;;4924181;29;20044;-77
2023/05/26 01:30:53;;;;;;;17.67;4.15;;;9.70;99.90;;;;;;4908817;29;20034;-83
2023/05/26 01:33:19;;;;;;;19.38;5.05;;;9.60;99.90;;;;;;4906993;29;20039;-80
2023/05/26 01:35:45;;;;;;;20.52;4.65;;;9.60;99.90;;;;;;4907885;29;20968;-79
2023/05/26 01:38:11;;;;;;;17.63;4.20;;;9.60;99.90;;;;;;4924030;28;20062;-80
2023/05/26 01:40:41;;;;;;;32.90;5.45;;;9.60;99.90;;;;;;4905170;28;20036;-81
2023/05/26 01:43:23;;;;;;;16.67;4.38;;;9.60;99.90;;;;;;4922249;28;20064;-79
2023/05/26 01:45:56;;;;;;;18.95;4.82;;;9.70;99.90;;;;;;4911320;28;20185;-80
2023/05/26 01:48:23;;;;;;;17.88;4.13;;;9.70;99.90;;;;;;4912177;29;20051;-80
2023/05/26 01:50:57;;;;;;;27.33;4.13;;;9.60;99.90;;;;;;4917367;28;20094;-78
2023/05/26 01:53:35;;;;;;;14.45;4.22;;;9.50;99.90;;;;;;4914664;28;20083;-79
2023/05/26 01:56:02;;;;;;;16.70;4.90;;;9.50;99.90;;;;;;4913799;28;20048;-77
2023/05/26 01:58:28;;;;;;;17.13;4.43;;;9.60;99.90;;;;;;4911459;28;20052;-78
2023/05/26 02:00:54;;;;;;;22.08;5.18;;;9.60;99.90;;;;;;4892787;29;20588;-79
2023/05/26 02:03:21;;;;;;;19.17;4.45;;;9.70;99.90;;;;;;4904921;29;20097;-80
2023/05/26 02:05:47;;;;;;;19.95;4.50;;;9.70;99.90;;;;;;4928557;29;20109;-78
2023/05/26 02:08:13;;;;;;;18.85;4.40;;;9.70;99.90;;;;;;4897817;29;20043;-80
2023/05/26 02:10:39;;;;;;;18.30;5.00;;;9.70;99.90;;;;;;4914399;28;20078;-81
2023/05/26 02:13:06;;;;;;;13.98;3.88;;;9.70;99.90;;;;;;4913552;29;20101;-80
2023/05/26 02:15:32;;;;;;;23.40;4.57;;;9.70;99.90;;;;;;4895279;28;20050;-79
2023/05/26 02:17:58;;;;;;;15.20;4.55;;;9.60;99.90;;;;;;4910815;29;20043;-78
2023/05/26 02:20:24;;;;;;;20.67;4.50;;;9.70;99.90;;;;;;4894924;29;20071;-80
2023/05/26 02:22:50;;;;;;;23.70;4.40;;;9.70;99.90;;;;;;4914288;29;20055;-82
2023/05/26 02:25:16;;;;;;;20.88;4.47;;;9.70;99.90;;;;;;4913869;28;20050;-82
2023/05/26 02:27:42;;;;;;;22.35;4.20;;;9.60;99.90;;;;;;4912726;29;20052;-81
2023/05/26 02:30:08;;;;;;;21.05;4.18;;;9.70;99.90;;;;;;4912117;29;20165;-82
2023/05/26 02:32:36;;;;;;;20.58;5.30;;;9.60;99.90;;;;;;4926423;29;20044;-79
2023/05/26 02:35:06;;;;;;;16.88;4.38;;;9.60;99.90;;;;;;4908957;29;20036;-79
2023/05/26 02:37:32;;;;;;;19.50;4.10;;;9.60;99.90;;;;;;4910625;29;20127;-83
2023/05/26 02:39:57;;;;;;;22.88;4.22;;;9.60;99.90;;;;;;4898192;28;20048;-80
2023/05/26 02:42:23;;;;;;;18.80;4.53;;;9.60;99.90;;;;;;4902822;28;20048;-78
2023/05/26 02:44:50;;;;;;;16.88;4.38;;;9.50;99.90;;;;;;4895126;28;20040;-79
2023/05/26 02:47:16;;;;;;;16.70;4.40;;;9.50;99.90;;;;;;4927563;29;20415;-79
2023/05/26 02:49:42;;;;;;;21.50;4.75;;;9.60;99.90;;;;;;4914167;28;20484;-78
2023/05/26 02:52:08;;;;;;;21.80;4.03;;;9.50;99.90;;;;;;4912661;29;20055;-82
2023/05/26 02:54:34;;;;;;;16.63;3.95;;;9.50;99.90;;;;;;4929775;28;20491;-79
2023/05/26 02:57:00;;;;;;;20.42;4.53;;;9.60;99.90;;;;;;4937804;28;20060;-77
2023/05/26 02:59:25;;;;;;;17.02;3.92;;;9.50;99.90;;;;;;4892667;29;20898;-79
2023/05/26 03:01:51;;;;;;;16.75;3.72;;;9.50;99.90;;;;;;4907697;28;20040;-83
2023/05/26 03:04:17;;;;;;;19.13;4.00;;;9.40;99.90;;;;;;4896031;29;20166;-83
2023/05/26 03:06:44;;;;;;;17.10;3.67;;;9.50;99.90;;;;;;4898236;28;20042;-81
2023/05/26 03:09:10;;;;;;;19.92;4.50;;;9.50;99.90;;;;;;4881777;28;20384;-83
2023/05/26 03:11:36;;;;;;;21.90;5.07;;;9.40;99.90;;;;;;4913606;29;20044;-78
2023/05/26 03:14:01;;;;;;;21.02;4.20;;;9.50;99.90;;;;;;4912960;29;20054;-82
2023/05/26 03:16:29;;;;;;;16.98;4.13;;;9.40;99.90;;;;;;4895508;29;20047;-80
2023/05/26 03:18:56;;;;;;;18.00;3.78;;;9.40;99.90;;;;;;4914112;29;20055;-81
2023/05/26 03:21:21;;;;;;;17.38;4.85;;;9.40;99.90;;;;;;4929130;29;20043;-79
2023/05/26 03:23:47;;;;;;;17.85;4.47;;;9.40;99.90;;;;;;4910309;28;20480;-81
2023/05/26 03:26:13;;;;;;;24.45;4.47;;;9.40;99.90;;;;;;4912106;28;20399;-78
2023/05/26 03:28:39;;;;;;;15.98;4.57;;;9.40;99.90;;;;;;4909215;29;20057;-82
2023/05/26 03:31:05;;;;;;;14.02;4.13;;;9.40;99.90;;;;;;4896693;28;20047;-79
2023/05/26 03:33:31;;;;;;;20.20;3.85;;;9.50;99.90;;;;;;4881652;29;20108;-78
2023/05/26 03:36:00;;;;;;;16.02;4.53;;;9.50;99.90;;;;;;4882487;29;20056;-80
2023/05/26 03:38:26;;;;;;;17.48;4.43;;;9.50;99.90;;;;;;4907192;28;20479;-80
2023/05/26 03:40:52;;;;;;;18.52;5.20;;;9.50;99.90;;;;;;4880976;29;20117;-80
2023/05/26 03:43:18;;;;;;;14.90;3.40;;;9.60;99.90;;;;;;4893937;28;20075;-80
2023/05/26 03:45:43;;;;;;;24.88;5.05;;;9.60;99.90;;;;;;4900708;29;20079;-80
2023/05/26 03:48:12;;;;;;;18.63;4.00;;;9.50;99.90;;;;;;4908267;29;20043;-79
2023/05/26 03:50:39;;;;;;;18.20;4.78;;;9.60;99.90;;;;;;4912990;29;20036;-82
2023/05/26 03:53:05;;;;;;;16.48;4.22;;;9.60;99.90;;;;;;4911919;29;20574;-81
2023/05/26 03:55:33;;;;;;;13.57;4.13;;;9.50;99.90;;;;;;4912548;29;20500;-80
2023/05/26 03:57:59;;;;;;;13.45;4.00;;;9.60;99.90;;;;;;4911259;28;20040;-80
2023/05/26 04:00:30;;;;;;;15.98;3.80;;;9.60;99.90;;;;;;4893097;29;20477;-80
2023/05/26 04:02:56;;;;;;;20.40;4.40;;;9.60;99.90;;;;;;4910773;29;20047;-79
2023/05/26 04:05:22;;;;;;;19.27;4.82;;;9.70;99.90;;;;;;4912773;29;20486;-83
2023/05/26 04:07:49;;;;;;;17.52;4.20;;;9.70;99.90;;;;;;4911338;29;20078;-83
2023/05/26 04:10:15;;;;;;;16.38;3.97;;;9.80;99.90;;;;;;4908809;29;20123;-80
2023/05/26 04:12:40;;;;;;;20.45;4.13;;;9.80;99.90;;;;;;4896203;29;20550;-84
2023/05/26 04:15:08;;;;;;;16.85;3.85;;;9.80;99.90;;;;;;4913009;29;20104;-81
2023/05/26 04:17:35;;;;;;;20.40;4.20;;;9.80;99.90;;;;;;4910433;29;20046;-81
2023/05/26 04:20:01;;;;;;;19.25;4.68;;;9.80;99.90;;;;;;4920781;28;20039;-78
2023/05/26 04:22:26;;;;;;;14.63;3.92;;;9.80;99.90;;;;;;4905689;29;20125;-78
2023/05/26 04:24:52;;;;;;;17.13;4.30;;;9.80;99.90;;;;;;4893631;29;20060;-78
2023/05/26 04:27:18;;;;;;;20.13;4.38;;;9.80;99.90;;;;;;4977416;28;20040;-79
2023/05/26 04:29:43;;;;;;;15.52;4.28;;;9.90;99.90;;;;;;4905849;28;20510;-80
2023/05/26 04:32:11;;;;;;;18.70;4.85;;;9.90;99.90;;;;;;4911378;29;20377;-80
2023/05/26 04:34:38;;;;;;;16.33;3.80;;;10.00;99.90;;;;;;4895237;29;20052;-80
2023/05/26 04:37:04;;;;;;;16.50;3.53;;;10.10;99.90;;;;;;4906282;28;20059;-83
2023/05/26 04:39:33;;;;;;;19.95;3.75;;;10.20;99.90;;;;;;4921795;28;20088;-79
2023/05/26 04:41:59;;;;;;;16.58;3.65;;;10.30;99.90;;;;;;4909662;29;20515;-80
2023/05/26 04:44:25;;;;;;;15.57;4.70;;;10.40;99.90;;;;;;4898012;29;20148;-83
2023/05/26 04:46:52;;;;;;;14.73;3.88;;;10.50;99.90;;;;;;4881907;29;20044;-84
2023/05/26 04:49:25;;;;;;;16.02;3.85;;;10.60;99.90;;;;;;4925325;28;22106;-82
2023/05/26 04:51:57;;;;;;;25.40;4.38;;;10.60;99.90;;;;;;4906705;28;20063;-83
2023/05/26 04:54:23;;;;;;;18.52;4.28;;;10.60;99.90;;;;;;4923727;28;20070;-80
2023/05/26 04:56:49;;;;;;;22.45;4.85;;;10.60;99.90;;;;;;4894276;29;20126;-84
2023/05/26 04:59:17;;;;;;;13.80;3.65;;;10.70;99.90;;;;;;4927802;29;20119;-79
2023/05/26 05:01:44;;;;;;;21.00;4.70;;;10.80;99.90;;;;;;4928168;29;20048;-80
2023/05/26 05:04:10;;;;;;;17.70;4.50;;;10.90;99.90;;;;;;4929558;29;20671;-86
2023/05/26 05:06:35;;;;;;;19.50;4.47;;;10.90;99.90;;;;;;4914004;28;20051;-85
2023/05/26 05:09:02;;;;;;;16.63;4.13;;;11.00;99.90;;;;;;4882246;29;20714;-84
2023/05/26 05:11:28;;;;;;;17.52;4.03;;;11.10;99.90;;;;;;4931065;29;20043;-83
2023/05/26 05:13:53;;;;;;;14.80;4.38;;;11.20;99.90;;;;;;4900688;29;20093;-85
2023/05/26 05:16:19;;;;;;;19.20;4.40;;;11.30;99.90;;;;;;4882995;29;20052;-79
2023/05/26 05:18:45;;;;;;;23.13;4.63;;;11.40;99.90;;;;;;4887162;29;20447;-81
2023/05/26 05:21:10;;;;;;;18.23;4.70;;;11.50;99.90;;;;;;4893439;29;20046;-81
2023/05/26 05:23:36;;;;;;;23.17;4.55;;;11.80;99.90;;;;;;4907641;28;20098;-79
2023/05/26 05:26:02;;;;;;;17.10;5.20;;;11.90;99.90;;;;;;4917099;29;20503;-80
2023/05/26 05:28:27;;;;;;;20.05;4.70;;;12.10;99.90;;;;;;4897874;29;20123;-79
2023/05/26 05:30:53;;;;;;;22.90;4.88;;;12.20;99.90;;;;;;4928977;29;20130;-77
2023/05/26 05:33:19;;;;;;;21.10;4.93;;;12.50;99.90;;;;;;4914034;29;20048;-79
2023/05/26 05:35:45;;;;;;;15.45;4.07;;;12.50;99.90;;;;;;4910558;29;20051;-76
2023/05/26 05:38:11;;;;;;;18.88;3.55;;;12.70;99.90;;;;;;4913713;28;20082;-75
2023/05/26 05:40:37;;;;;;;15.45;3.95;;;12.90;99.90;;;;;;4923587;28;20104;-79
2023/05/26 05:43:06;;;;;;;15.82;3.70;;;13.00;99.90;;;;;;4881083;29;20051;-79
2023/05/26 05:45:40;;;;;;;19.17;4.63;;;13.00;99.90;;;;;;4913966;29;20078;-78
2023/05/26 05:48:05;;;;;;;18.85;4.50;;;13.20;99.90;;;;;;4894216;29;20108;-78
2023/05/26 05:50:31;;;;;;;23.92;4.93;;;13.40;99.90;;;;;;4970514;28;20041;-75
2023/05/26 05:52:57;;;;;;;15.30;3.75;;;13.50;99.90;;;;;;4931064;28;20115;-81
2023/05/26 05:55:23;;;;;;;20.30;5.13;;;13.40;99.90;;;;;;4926189;28;20118;-77
2023/05/26 05:57:51;;;;;;;20.50;4.80;;;13.50;99.90;;;;;;4909621;29;20038;-77
2023/05/26 06:00:18;;;;;;;15.68;4.13;;;13.50;99.90;;;;;;4910673;29;20062;-79
2023/05/26 06:02:44;;;;;;;30.08;4.72;;;13.60;99.90;;;;;;4902453;28;20040;-82
2023/05/26 06:05:09;;;;;;;17.60;3.90;;;13.40;99.90;;;;;;4913444;29;20036;-83
2023/05/26 06:07:35;;;;;;;16.17;4.07;;;13.40;99.90;;;;;;4896828;29;20038;-80
2023/05/26 06:10:01;;;;;;;15.93;4.47;;;13.40;99.90;;;;;;4894658;29;20054;-84
2023/05/26 06:12:27;;;;;;;16.08;3.83;;;13.50;99.90;;;;;;4912484;28;20055;-81
2023/05/26 06:14:52;;;;;;;18.05;4.32;;;13.40;99.90;;;;;;4929110;29;20075;-83
2023/05/26 06:17:18;;;;;;;15.10;4.07;;;13.30;99.90;;;;;;4929608;29;20113;-80
2023/05/26 06:19:44;;;;;;;13.25;3.63;;;13.30;99.90;;;;;;4925838;28;20047;-78
2023/05/26 06:22:10;;;;;;;20.17;3.60;;;13.30;99.90;;;;;;4928573;29;20036;-80
2023/05/26 06:24:35;;;;;;;17.42;3.45;;;13.40;99.90;;;;;;4879377;28;20044;-82
2023/05/26 06:27:01;;;;;;;12.70;3.35;;;13.30;99.90;;;;;;4898627;28;20525;-80
2023/05/26 06:29:27;;;;;;;18.05;3.30;;;13.50;99.90;;;;;;4894475;28;20055;-80
2023/05/26 06:31:54;;;;;;;17.70;3.70;;;13.70;99.90;;;;;;4896578;29;20074;-84
2023/05/26 06:34:19;;;;;;;21.17;3.60;;;13.90;99.90;;;;;;4911702;28;20043;-83
2023/05/26 06:36:45;;;;;;;14.55;3.83;;;14.30;99.90;;;;;;4894884;29;20040;-79
2023/05/26 06:39:11;;;;;;;16.17;3.97;;;14.50;99.90;;;;;;4910500;28;20171;-82
2023/05/26 06:41:36;;;;;;;16.13;3.97;;;14.70;99.90;;;;;;4881965;29;20043;-79
2023/05/26 06:44:02;;;;;;;18.13;3.97;;;14.80;99.90;;;;;;4912160;28;20190;-78
2023/05/26 06:46:28;;;;;;;15.05;3.00;;;14.80;99.90;;;;;;4927276;29;20334;-77
2023/05/26 06:48:54;;;;;;;15.80;3.20;;;15.00;99.90;;;;;;4908493;28;20447;-76
2023/05/26 06:51:19;;;;;;;14.18;3.67;;;15.20;99.90;;;;;;4909591;28;20055;-78
2023/05/26 06:53:45;;;;;;;16.20;3.30;;;15.50;99.90;;;;;;4928367;28;20051;-77
2023/05/26 06:56:11;;;;;;;15.00;3.50;;;15.80;99.90;;;;;;4911171;28;20123;-80
2023/05/26 06:58:37;;;;;;;13.15;3.85;;;15.80;99.90;;;;;;4894618;29;20135;-79
2023/05/26 07:01:04;;;;;;;14.85;3.40;;;15.80;99.90;;;;;;4911074;28;20040;-79
2023/05/26 07:03:30;;;;;;;9.13;2.65;;;15.80;99.90;;;;;;4905290;28;20117;-77
2023/05/26 07:05:57;;;;;;;10.15;2.78;;;15.60;99.90;;;;;;4920639;28;20047;-79
2023/05/26 07:08:23;;;;;;;10.45;2.92;;;15.50;99.90;;;;;;4912087;28;20043;-80
2023/05/26 07:10:49;;;;;;;13.70;3.17;;;15.60;99.90;;;;;;4906445;28;20031;-78
2023/05/26 07:13:15;;;;;;;13.18;3.20;;;15.40;99.90;;;;;;4920088;28;20055;-78
2023/05/26 07:15:42;;;;;;;10.30;2.78;;;15.90;99.90;;;;;;4924685;28;20094;-80
2023/05/26 07:18:08;;;;;;;9.90;2.75;;;16.10;99.90;;;;;;4911049;29;20392;-79
2023/05/26 07:20:37;;;;;;;10.85;3.33;;;16.30;99.90;;;;;;4926448;28;20531;-80
2023/05/26 07:23:03;;;;;;;13.30;3.60;;;16.10;99.90;;;;;;4896551;29;20131;-78
2023/05/26 07:25:29;;;;;;;12.43;2.85;;;16.40;99.90;;;;;;4910142;29;20115;-80
2023/05/26 07:27:55;;;;;;;11.30;2.38;;;16.20;99.90;;;;;;4911190;28;20590;-77
2023/05/26 07:30:21;;;;;;;11.57;3.63;;;16.10;99.90;;;;;;4927705;29;20122;-81
2023/05/26 07:32:47;;;;;;;11.00;2.70;;;16.20;99.90;;;;;;4921601;28;20119;-79
2023/05/26 07:35:13;;;;;;;13.65;3.47;;;16.40;99.90;;;;;;4907287;29;20048;-78
2023/05/26 07:37:40;;;;;;;12.55;3.05;;;16.50;99.90;;;;;;4908780;29;20044;-77
2023/05/26 07:40:06;;;;;;;7.57;2.45;;;16.60;99.90;;;;;;4923535;28;20046;-80
2023/05/26 07:42:33;;;;;;;12.65;2.80;;;16.40;99.90;;;;;;4906095;28;20056;-81
2023/05/26 07:44:58;;;;;;;11.23;2.92;;;16.30;99.90;;;;;;4922642;28;20040;-78
2023/05/26 07:47:24;;;;;;;7.88;3.47;;;16.10;99.90;;;;;;4939121;28;20063;-80
2023/05/26 07:49:50;;;;;;;10.65;3.22;;;16.30;99.90;;;;;;4891634;29;20055;-77
2023/05/26 07:52:16;;;;;;;9.45;2.83;;;16.40;99.90;;;;;;4925863;28;20083;-79
2023/05/26 07:54:42;;;;;;;7.15;2.65;;;16.40;99.90;;;;;;4890112;28;20639;-75
2023/05/26 07:57:08;;;;;;;11.00;3.20;;;16.30;99.90;;;;;;4923957;28;20147;-77
2023/05/26 07:59:34;;;;;;;14.00;3.22;;;16.30;99.90;;;;;;4911388;28;20036;-79
2023/05/26 08:01:59;;;;;;;9.85;2.85;;;16.40;99.90;;;;;;4910184;28;20105;-77
2023/05/26 08:04:25;;;;;;;11.48;2.50;;;16.60;99.90;;;;;;4911179;28;20093;-75
2023/05/26 08:06:50;;;;;;;7.93;2.78;;;16.80;99.90;;;;;;4889068;29;20050;-76
2023/05/26 08:09:16;;;;;;;13.45;2.72;;;16.80;99.90;;;;;;4909644;28;20078;-75
2023/05/26 08:11:42;;;;;;;10.80;3.15;;;16.90;99.90;;;;;;4925769;28;20048;-78
2023/05/26 08:14:08;;;;;;;11.20;3.15;;;17.00;99.90;;;;;;4892834;29;20174;-78
2023/05/26 08:16:34;;;;;;;8.25;2.67;;;16.90;95.10;;;;;;4909776;28;20102;-76
2023/05/26 08:19:00;;;;;;;9.05;2.90;;;16.60;64.50;;;;;;4887074;28;20127;-78
2023/05/26 08:21:28;;;;;;;11.00;3.28;;;16.60;80.60;;;;;;4907807;29;20036;-80
2023/05/26 08:23:54;;;;;;;8.73;2.60;;;16.60;89.20;;;;;;4910058;29;20036;-79
2023/05/26 08:26:22;;;;;;;12.77;3.53;;;16.60;54.40;;;;;;4892686;29;20109;-76
2023/05/26 08:28:48;;;;;;;12.40;3.05;;;17.00;90.80;;;;;;4887342;28;20039;-76
2023/05/26 08:31:14;;;;;;;9.52;2.50;;;17.00;96.90;;;;;;4910802;28;20047;-78
2023/05/26 08:33:39;;;;;;;11.50;4.13;;;16.70;51.50;;;;;;4929286;28;20078;-80
2023/05/26 08:36:05;;;;;;;10.52;2.88;;;17.20;94.90;;;;;;4913192;28;20119;-79
2023/05/26 08:38:37;;;;;;;15.07;3.65;;;17.20;67.60;;;;;;4907182;29;20050;-77
2023/05/26 08:41:07;;;;;;;12.55;2.80;;;17.50;71.80;;;;;;4878211;28;20044;-78
2023/05/26 08:43:56;;;;;;;6.97;2.92;;;17.60;20.80;;;;;;4893420;28;20052;-75
2023/05/26 08:46:23;;;;;;;9.55;2.63;;;17.50;10.50;;;;;;4923537;29;20059;-75
2023/05/26 08:48:51;;;;;;;7.93;2.13;;;17.40;1.00;;;;;;4908050;28;20510;-79
2023/05/26 08:51:17;;;;;;;9.00;2.30;;;17.30;1.00;;;;;;4907552;29;20057;-79
2023/05/26 08:53:45;;;;;;;7.18;2.35;;;17.10;1.00;;;;;;4915291;28;20135;-77
2023/05/26 08:56:11;;;;;;;8.80;3.38;;;17.10;1.00;;;;;;4930938;29;20044;-77
2023/05/26 08:58:38;;;;;;;10.45;2.47;;;17.30;1.00;;;;;;4925028;28;20050;-77
2023/05/26 09:01:04;;;;;;;7.93;2.83;;;17.40;1.00;;;;;;4913881;28;20682;-76
2023/05/26 09:03:30;;;;;;;9.75;2.50;;;17.90;1.00;;;;;;4926762;29;20031;-78
2023/05/26 09:05:56;;;;;;;13.10;3.00;;;18.10;1.00;;;;;;4914950;28;20040;-75
2023/05/26 09:08:22;;;;;;;8.82;2.50;;;18.50;1.00;;;;;;4929896;29;20078;-79
2023/05/26 09:10:48;;;;;;;14.07;3.40;;;18.60;1.00;;;;;;4928994;29;20035;-75
2023/05/26 09:13:17;;;;;;;10.50;2.95;;;18.60;1.00;;;;;;4914909;29;20050;-77
2023/05/26 09:15:44;;;;;;;16.33;3.22;;;18.50;99.90;;;;;;4914592;29;20052;-75
2023/05/26 09:18:12;;;;;;;9.93;3.03;;;19.00;1.00;;;;;;4915098;28;20048;-76
2023/05/26 09:20:42;;;;;;;9.02;2.60;;;18.30;99.90;;;;;;4914884;28;20094;-79
2023/05/26 09:23:08;;;;;;;8.80;2.90;;;18.80;99.90;;;;;;4913285;29;20043;-76
2023/05/26 09:25:35;;;;;;;10.13;3.08;;;19.10;99.90;;;;;;4914856;28;20036;-74
2023/05/26 09:28:05;;;;;;;11.18;3.50;;;19.70;99.90;;;;;;4915336;28;20453;-73
2023/05/26 09:30:40;;;;;;;10.15;3.03;;;19.50;1.00;;;;;;4897528;28;20052;-76
2023/05/26 09:33:08;;;;;;;10.65;3.58;;;19.00;39.30;;;;;;4913347;29;20046;-76
2023/05/26 09:35:46;;;;;;;9.93;2.83;;;18.80;99.90;;;;;;4929325;29;20048;-75
2023/05/26 09:38:14;;;;;;;14.60;3.17;;;19.30;99.90;;;;;;4925929;28;20631;-75
2023/05/26 09:40:44;;;;;;;10.15;3.08;;;19.10;99.90;;;;;;4926338;29;20054;-74
2023/05/26 09:43:10;;;;;;;7.75;2.88;;;19.40;1.00;;;;;;4920023;28;20648;-73
2023/05/26 09:45:37;;;;;;;11.13;3.85;;;19.20;99.90;;;;;;4896596;29;20042;-73
2023/05/26 09:48:08;;;;;;;8.95;2.97;;;19.00;99.90;;;;;;4912484;29;20094;-72
2023/05/26 09:50:38;;;;;;;8.32;3.00;;;18.90;99.90;;;;;;4913836;29;20706;-75
2023/05/26 09:53:06;;;;;;;9.98;2.75;;;19.40;99.90;;;;;;4910721;29;20139;-77
2023/05/26 09:55:32;;;;;;;6.80;2.63;;;19.30;7.10;;;;;;4929062;29;20032;-81
2023/05/26 09:58:08;;;;;;;9.15;2.72;;;18.80;99.90;;;;;;4913655;29;20040;-77
2023/05/26 10:00:40;;;;;;;10.73;3.20;;;19.60;1.00;;;;;;4909266;29;20047;-79
2023/05/26 10:03:10;;;;;;;8.18;2.47;;;19.40;99.90;;;;;;4907141;29;20047;-80
2023/05/26 10:05:39;;;;;;;10.00;3.08;;;19.20;27.60;;;;;;4913087;28;20476;-78
2023/05/26 10:08:06;;;;;;;10.80;3.25;;;19.50;99.90;;;;;;4913942;29;20047;-80
2023/05/26 10:10:34;;;;;;;13.27;3.90;;;19.00;92.80;;;;;;4908862;28;20114;-79
2023/05/26 10:13:01;;;;;;;15.63;2.63;;;19.30;32.70;;;;;;4905512;28;20463;-81
2023/05/26 10:15:30;;;;;;;10.15;3.10;;;19.00;1.00;;;;;;4926154;29;20043;-79
2023/05/26 10:17:58;;;;;;;11.43;3.22;;;19.30;1.00;;;;;;4929378;28;20044;-77
2023/05/26 10:20:27;;;;;;;10.70;3.08;;;19.20;99.90;;;;;;4913821;29;20526;-76
2023/05/26 10:22:59;;;;;;;9.93;2.70;;;19.90;99.90;;;;;;4883789;28;20579;-76
2023/05/26 10:26:07;;;;;;;11.77;3.20;;;20.00;99.90;;;;;;4910595;28;20040;-79
2023/05/26 10:28:55;;;;;;;8.60;2.83;;;19.90;99.90;;;;;;4896631;28;20142;-78
2023/05/26 10:31:34;;;;;;;8.48;2.70;;;19.50;87.30;;;;;;4912953;29;20048;-79
2023/05/26 10:34:10;;;;;;;9.07;3.17;;;20.00;99.90;;;;;;4929186;29;20930;-81
2023/05/26 10:36:37;;;;;;;12.18;3.08;;;20.50;99.90;;;;;;4929053;29;20040;-80
2023/05/26 10:39:09;;;;;;;9.35;3.10;;;20.10;99.90;;;;;;4911005;29;20510;-78
2023/05/26 10:41:47;;;;;;;10.63;3.10;;;19.60;1.00;;;;;;4912735;28;20044;-77
2023/05/26 10:44:40;;;;;;;10.43;2.95;;;19.80;1.00;;;;;;4912899;29;20408;-80
2023/05/26 10:47:06;;;;;;;8.57;2.90;;;20.30;99.90;;;;;;4925204;29;20419;-77
2023/05/26 10:49:35;;;;;;;10.80;3.35;;;20.60;76.70;;;;;;4909017;28;20783;-79
2023/05/26 10:52:12;;;;;;;7.53;2.88;;;20.10;99.90;;;;;;4898575;28;20404;-81
2023/05/26 10:54:37;;;;;;;7.78;3.17;;;20.40;23.20;;;;;;4928818;29;20054;-80
2023/05/26 10:57:03;;;;;;;11.20;3.58;;;20.90;99.90;;;;;;4897605;29;20043;-80
2023/05/26 10:59:32;;;;;;;9.60;3.28;;;20.50;99.90;;;;;;4910772;29;20108;-78
2023/05/26 11:02:03;;;;;;;7.68;3.05;;;20.50;99.90;;;;;;4916814;28;20400;-77
2023/05/26 11:04:48;;;;;;;11.95;3.58;;;19.70;1.00;;;;;;4925081;28;20043;-76
2023/05/26 11:07:26;;;;;;;9.88;3.03;;;20.10;6.40;;;;;;4910841;28;20170;-77
2023/05/26 11:10:02;;;;;;;11.48;3.40;;;20.60;99.90;;;;;;4911212;29;20050;-76
2023/05/26 11:13:18;;;;;;;10.10;3.30;;;19.90;1.00;;;;;;4901888;29;20063;-77
2023/05/26 11:15:43;;;;;;;;;;;20.50;1.00;;;;;;4903450;29;20168;-74
2023/05/26 11:18:09;;;;;;;10.57;3.08;;;20.80;1.00;;;;;;4897109;29;20348;-75
2023/05/26 11:20:36;;;;;;;11.52;3.35;;;20.50;1.00;;;;;;4908643;29;20044;-75
2023/05/26 11:23:03;;;;;;;13.27;3.97;;;21.20;1.00;;;;;;4926163;29;20075;-78
2023/05/26 11:25:28;;;;;;;10.43;3.58;;;20.60;1.00;;;;;;4895928;28;20449;-77
2023/05/26 11:28:05;;;;;;;11.23;3.70;;;20.40;1.00;;;;;;4893189;29;20098;-76
2023/05/26 11:30:37;;;;;;;11.60;3.60;;;20.40;1.00;;;;;;4899335;29;20040;-76
2023/05/26 11:33:12;;;;;;;13.13;3.33;;;20.00;85.30;;;;;;4886281;28;20102;-77
2023/05/26 11:35:37;;;;;;;9.88;3.20;;;20.10;1.00;;;;;;4912931;28;20102;-79
2023/05/26 11:38:03;;;;;;;10.15;3.20;;;19.70;1.00;;;;;;4916623;28;20406;-81
2023/05/26 11:40:36;;;;;;;8.63;3.60;;;19.70;1.00;;;;;;4866595;28;20039;-77
2023/05/26 11:43:04;;;;;;;10.70;3.42;;;19.90;1.00;;;;;;4905073;29;20060;-80
2023/05/26 11:45:43;;;;;;;9.27;3.08;;;20.80;1.00;;;;;;4893113;28;20048;-82
2023/05/26 11:48:12;;;;;;;9.05;3.13;;;20.70;99.90;;;;;;4913798;28;20589;-79
2023/05/26 11:50:38;;;;;;;9.85;3.20;;;20.20;99.90;;;;;;4908975;29;20048;-78
2023/05/26 11:53:04;;;;;;;7.30;2.88;;;19.90;99.90;;;;;;4908769;29;20052;-76
2023/05/26 11:55:30;;;;;;;10.45;3.10;;;19.80;99.90;;;;;;4887628;29;20047;-75
2023/05/26 11:57:56;;;;;;;10.52;3.28;;;19.60;1.00;;;;;;4892108;29;20269;-78
2023/05/26 12:00:22;;;;;;;9.05;3.20;;;20.30;1.00;;;;;;4908402;29;20047;-78
2023/05/26 12:02:48;;;;;;;8.23;3.03;;;20.40;1.00;;;;;;4907947;29;20123;-77
2023/05/26 12:05:22;;;;;;;9.55;2.85;;;19.70;99.90;;;;;;4907320;29;20040;-75
2023/05/26 12:08:10;;;;;;;11.50;3.65;;;19.60;99.90;;;;;;4907520;28;20048;-79
2023/05/26 12:10:42;;;;;;;8.85;3.22;;;20.30;1.00;;;;;;4982193;28;20116;-73
2023/05/26 12:13:08;;;;;;;8.82;3.05;;;20.30;99.90;;;;;;4915082;28;20044;-80
2023/05/26 12:15:37;;;;;;;10.80;3.28;;;20.30;99.90;;;;;;4924438;28;20395;-79
2023/05/26 12:18:14;;;;;;;13.00;3.58;;;20.00;99.90;;;;;;4903227;29;20044;-79
2023/05/26 12:20:49;;;;;;;10.93;3.40;;;20.00;99.90;;;;;;4909694;28;20047;-79
2023/05/26 12:23:23;;;;;;;9.18;3.33;;;20.80;99.90;;;;;;4918100;28;20392;-80
2023/05/26 12:25:52;;;;;;;9.48;3.50;;;20.20;99.90;;;;;;4903760;29;20392;-80
2023/05/26 12:28:17;;;;;;;7.78;3.08;;;20.30;99.90;;;;;;4903120;29;20043;-77
2023/05/26 12:30:45;;;;;;;7.57;2.92;;;21.40;99.90;;;;;;4913612;28;20761;-79
2023/05/26 12:33:11;;;;;;;7.55;3.33;;;21.50;99.90;;;;;;4871365;29;20048;-77
2023/05/26 12:35:37;;;;;;;8.80;2.85;;;21.00;99.90;;;;;;4889623;28;20070;-77
2023/05/26 12:38:03;;;;;;;11.60;4.00;;;19.90;99.90;;;;;;4886070;28;20495;-77
2023/05/26 12:40:29;;;;;;;13.13;3.75;;;20.30;99.90;;;;;;4902719;29;20103;-77
2023/05/26 12:42:54;;;;;;;8.45;3.33;;;19.90;99.90;;;;;;4884642;29;20052;-77
2023/05/26 12:45:20;;;;;;;7.70;3.13;;;20.10;99.90;;;;;;4904231;28;20047;-73
2023/05/26 12:47:49;;;;;;;10.25;3.75;;;19.70;99.90;;;;;;4915858;28;20056;-76